Time;durP1;ratioP1;P1;durP2;ratioP2;P2;SDS_P1;SDS_P2;PMS_P1;PMS_P2;Temp;Humidity;BMP_temperature;BMP_pressure;BME280_temperature;BME280_humidity;BME280_pressure;Samples;Min_cycle;Max_cycle;Signal;HPM_P1;HPM_P2
2021/07/12 00:00:59;;;;;;;20.73;8.00;;;;;;;24.25;57.33;101151.81;5133227;27;20169;-62
2021/07/12 00:03:24;;;;;;;15.80;7.40;;;;;;;23.70;56.98;101057.56;5132700;27;20478;-62
2021/07/12 00:05:50;;;;;;;11.33;7.30;;;;;;;23.92;57.14;101102.91;5133338;27;20502;-62
2021/07/12 00:08:16;;;;;;;11.87;8.00;;;;;;;24.29;57.33;101151.56;5128946;27;20206;-62
2021/07/12 00:10:41;;;;;;;10.83;7.27;;;;;;;24.29;57.30;101157.22;5107854;28;20186;-61
2021/07/12 00:13:07;;;;;;;8.73;7.37;;;;;;;23.68;57.33;101060.13;5112001;28;20607;-61
2021/07/12 00:15:33;;;;;;;12.63;7.10;;;;;;;24.30;57.25;101155.97;5112602;28;20647;-62
2021/07/12 00:17:59;;;;;;;10.03;6.83;;;;;;;24.25;57.20;101146.16;5128129;27;20574;-62
2021/07/12 00:20:25;;;;;;;14.63;7.10;;;;;;;24.02;57.24;101129.66;5132704;27;20797;-62
2021/07/12 00:22:53;;;;;;;11.03;7.30;;;;;;;24.20;57.46;101152.59;5132624;27;20620;-62
2021/07/12 00:25:20;;;;;;;10.10;6.97;;;;;;;24.16;57.93;101157.72;5132785;27;20230;-61
2021/07/12 00:27:46;;;;;;;15.27;7.53;;;;;;;24.10;58.23;101164.69;5132319;27;20195;-62
2021/07/12 00:30:15;;;;;;;13.30;7.97;;;;;;;24.01;58.54;101168.53;5132376;27;20184;-61
2021/07/12 00:32:41;;;;;;;14.03;7.30;;;;;;;24.00;58.84;101169.81;5118784;27;20182;-61
2021/07/12 00:35:09;;;;;;;10.77;7.53;;;;;;;23.87;59.01;101158.19;5112224;28;20189;-62
2021/07/12 00:37:35;;;;;;;9.07;7.53;;;;;;;23.95;58.87;101167.00;5112044;28;20174;-61
2021/07/12 00:40:03;;;;;;;11.10;7.73;;;;;;;23.83;59.44;101176.69;5110863;28;20192;-61
2021/07/12 00:42:28;;;;;;;13.87;8.23;;;;;;;23.68;59.01;101178.97;5131937;27;20192;-62
2021/07/12 00:44:54;;;;;;;18.13;8.40;;;;;;;23.71;58.96;101189.28;5132517;27;20197;-62
2021/07/12 00:47:19;;;;;;;13.77;7.90;;;;;;;23.71;58.65;101186.44;5133091;27;20209;-62
2021/07/12 00:49:45;;;;;;;12.13;7.50;;;;;;;23.76;58.71;101197.00;5125262;27;20186;-61
2021/07/12 00:52:11;;;;;;;11.30;7.40;;;;;;;23.80;58.42;101197.53;5105568;28;20189;-61
2021/07/12 00:54:36;;;;;;;13.67;7.70;;;;;;;23.74;58.36;101183.34;5104459;28;20201;-62
2021/07/12 00:57:05;;;;;;;12.23;7.70;;;;;;;23.82;58.26;101186.47;5111618;28;20257;-61
2021/07/12 00:59:30;;;;;;;10.20;8.00;;;;;;;23.23;58.65;101117.88;5110927;28;20185;-62
2021/07/12 01:01:56;;;;;;;9.47;7.93;;;;;;;23.68;58.06;101193.09;5110497;28;20182;-61
2021/07/12 01:04:22;;;;;;;11.10;7.73;;;;;;;23.39;58.05;101137.72;5113481;27;20202;-61
2021/07/12 01:06:48;;;;;;;13.33;7.87;;;;;;;23.79;58.49;101190.34;5132138;27;20662;-61
2021/07/12 01:09:13;;;;;;;13.23;8.20;;;;;;;23.83;58.34;101193.66;5118138;27;20182;-61
2021/07/12 01:12:13;;;;;;;10.10;7.70;;;;;;;23.83;58.10;101194.47;5110523;28;20554;-61
2021/07/12 01:15:01;;;;;;;14.97;8.00;;;;;;;23.87;57.72;101211.19;5111380;28;20241;-62
2021/07/12 01:17:33;;;;;;;14.17;8.47;;;;;;;23.88;57.57;101212.72;5122873;27;20642;-62
2021/07/12 01:20:22;;;;;;;16.67;8.00;;;;;;;23.88;57.42;101213.50;5131264;27;20191;-61
2021/07/12 01:22:51;;;;;;;15.17;9.20;;;;;;;23.85;57.14;101217.34;5131618;27;20624;-62
2021/07/12 01:25:54;;;;;;;10.97;8.57;;;;;;;23.78;56.62;101220.69;5122652;27;20178;-62
2021/07/12 01:28:49;;;;;;;11.20;8.13;;;;;;;23.73;56.59;101220.66;5110918;28;20621;-62
2021/07/12 01:31:18;;;;;;;10.40;7.97;;;;;;;23.71;56.75;101214.75;5086268;28;20247;-62
2021/07/12 01:34:29;;;;;;;11.33;8.10;;;;;;;23.60;56.99;101214.69;5110983;28;20178;-61
2021/07/12 01:37:17;;;;;;;10.03;7.77;;;;;;;23.70;56.77;101221.69;5108098;28;20221;-61
2021/07/12 01:39:53;;;;;;;12.13;8.77;;;;;;;23.69;56.90;101226.56;5110924;28;20569;-62
2021/07/12 01:42:38;;;;;;;12.83;8.70;;;;;;;23.63;56.95;101222.16;5110112;28;20196;-62
2021/07/12 01:45:11;;;;;;;11.43;8.23;;;;;;;23.56;57.19;101203.63;5110951;28;20190;-62
2021/07/12 01:47:55;;;;;;;13.00;8.50;;;;;;;23.46;57.44;101215.66;5111147;28;20647;-62
2021/07/12 01:50:29;;;;;;;21.47;9.40;;;;;;;23.30;57.95;101210.69;5092516;28;20600;-62
2021/07/12 01:53:12;;;;;;;12.63;8.70;;;;;;;23.24;57.99;101219.13;5098311;28;20174;-62
2021/07/12 01:55:45;;;;;;;15.20;8.83;;;;;;;23.05;58.62;101217.97;5090732;28;20171;-61
2021/07/12 01:58:37;;;;;;;15.00;8.60;;;;;;;22.91;59.16;101221.72;5090547;28;20254;-61
2021/07/12 02:01:04;;;;;;;18.93;9.47;;;;;;;22.82;59.39;101201.38;5090581;28;20174;-61
2021/07/12 02:03:31;;;;;;;24.17;9.97;;;;;;;22.95;58.94;101213.81;5122136;28;20209;-61
2021/07/12 02:06:00;;;;;;;24.33;9.80;;;;;;;22.95;59.03;101210.19;5131506;28;20682;-62
2021/07/12 02:08:27;;;;;;;17.47;9.07;;;;;;;22.97;58.78;101205.59;5126386;28;20209;-62
2021/07/12 02:10:55;;;;;;;16.40;9.63;;;;;;;22.58;60.21;101209.41;5111097;28;20189;-62
2021/07/12 02:13:21;;;;;;;15.23;9.33;;;;;;;22.49;60.58;101216.00;5112252;27;20190;-61
2021/07/12 02:15:50;;;;;;;16.70;9.87;;;;;;;21.96;60.46;101131.03;5133024;27;20184;-61
2021/07/12 02:18:16;;;;;;;18.80;10.13;;;;;;;22.59;60.25;101210.94;5133322;27;20181;-61
2021/07/12 02:20:46;;;;;;;24.33;10.10;;;;;;;22.62;60.20;101204.31;5134927;27;20229;-62
2021/07/12 02:23:13;;;;;;;18.97;9.93;;;;;;;22.59;60.33;101208.13;5127778;27;20219;-62
2021/07/12 02:25:41;;;;;;;18.67;9.70;;;;;;;21.98;60.22;101119.25;5118905;27;20190;-61
2021/07/12 02:28:11;;;;;;;17.27;10.00;;;;;;;21.94;60.21;101119.47;5135067;27;20189;-61
2021/07/12 02:30:38;;;;;;;20.40;10.17;;;;;;;22.57;60.07;101214.25;5134984;27;20178;-62
2021/07/12 02:33:05;;;;;;;18.90;9.60;;;;;;;21.82;59.95;101100.91;5117600;27;20182;-61
2021/07/12 02:35:32;;;;;;;17.13;9.07;;;;;;;22.63;60.04;101226.38;5114161;28;20205;-61
2021/07/12 02:37:58;;;;;;;18.37;10.07;;;;;;;21.90;59.80;101121.72;5114626;28;20190;-62
2021/07/12 02:40:24;;;;;;;17.77;9.87;;;;;;;22.61;59.88;101236.66;5116458;27;20261;-61
2021/07/12 02:42:53;;;;;;;22.87;9.37;;;;;;;22.58;59.70;101232.78;5134645;27;20173;-61
2021/07/12 02:45:19;;;;;;;13.83;9.20;;;;;;;22.65;59.65;101237.19;5133980;27;20580;-62
2021/07/12 02:47:46;;;;;;;13.67;8.70;;;;;;;22.64;59.61;101232.81;5134824;27;20661;-61
2021/07/12 02:50:12;;;;;;;15.30;9.33;;;;;;;22.58;59.32;101232.00;5133835;27;20263;-61
2021/07/12 02:52:42;;;;;;;15.37;9.50;;;;;;;22.54;58.85;101239.91;5134486;27;20188;-61
2021/07/12 02:55:08;;;;;;;12.40;9.83;;;;;;;22.44;58.76;101235.69;5134141;27;20558;-61
2021/07/12 02:57:34;;;;;;;12.10;8.77;;;;;;;21.73;58.62;101137.72;5134848;27;20185;-61
2021/07/12 03:00:00;;;;;;;11.57;9.27;;;;;;;22.25;58.95;101231.63;5134179;27;20174;-62
2021/07/12 03:02:26;;;;;;;11.17;8.60;;;;;;;22.19;59.06;101231.59;5134078;27;20663;-61
2021/07/12 03:04:51;;;;;;;11.07;9.20;;;;;;;21.91;59.30;101205.13;5134162;27;20207;-61
2021/07/12 03:07:25;;;;;;;15.07;8.73;;;;;;;22.05;59.41;101229.66;5133937;27;20178;-61
2021/07/12 03:09:54;;;;;;;15.70;9.73;;;;;;;21.98;59.66;101229.31;5117098;27;20177;-61
2021/07/12 03:12:26;;;;;;;12.40;9.13;;;;;;;21.87;60.05;101229.97;5113203;28;20250;-61
2021/07/12 03:15:07;;;;;;;13.70;9.10;;;;;;;21.70;60.42;101209.22;5129636;27;20601;-61
2021/07/12 03:17:37;;;;;;;15.73;8.77;;;;;;;21.73;60.46;101225.19;5133662;27;20207;-61
2021/07/12 03:20:05;;;;;;;11.83;8.73;;;;;;;21.70;60.64;101219.75;5133448;27;20183;-61
2021/07/12 03:22:34;;;;;;;13.87;9.77;;;;;;;21.62;60.81;101204.50;5134171;27;20664;-61
2021/07/12 03:25:01;;;;;;;15.30;9.57;;;;;;;21.47;60.97;101195.31;5132989;27;20288;-61
2021/07/12 03:27:27;;;;;;;20.07;9.93;;;;;;;21.51;61.38;101226.91;5133402;27;20250;-61
2021/07/12 03:29:53;;;;;;;15.60;9.33;;;;;;;21.53;61.16;101233.63;5133793;27;20193;-61
2021/07/12 03:32:22;;;;;;;12.93;9.23;;;;;;;21.58;61.19;101237.75;5122794;27;20185;-61
2021/07/12 03:34:51;;;;;;;13.70;9.67;;;;;;;21.26;61.06;101185.31;5113474;28;20553;-62
2021/07/12 03:37:19;;;;;;;14.07;9.57;;;;;;;21.61;61.05;101253.72;5112625;28;20272;-61
2021/07/12 03:39:45;;;;;;;13.23;9.40;;;;;;;21.26;61.15;101190.94;5111172;28;20174;-61
2021/07/12 03:42:11;;;;;;;10.70;9.57;;;;;;;21.31;60.92;101198.72;5127745;27;20185;-61
2021/07/12 03:44:39;;;;;;;10.97;9.37;;;;;;;21.62;60.96;101243.97;5133879;27;20199;-61
2021/07/12 03:47:05;;;;;;;12.77;9.27;;;;;;;21.61;61.01;101250.88;5133119;27;20176;-61
2021/07/12 03:49:31;;;;;;;14.63;9.63;;;;;;;21.61;61.08;101242.44;5132686;27;20238;-61
2021/07/12 03:51:57;;;;;;;13.87;9.33;;;;;;;21.21;60.91;101186.78;5133298;27;20721;-61
2021/07/12 03:54:22;;;;;;;13.80;9.43;;;;;;;21.64;61.10;101250.69;5133467;27;20190;-61
2021/07/12 03:56:48;;;;;;;14.67;9.77;;;;;;;21.67;61.06;101260.19;5115170;27;20189;-61
2021/07/12 03:59:14;;;;;;;12.57;9.53;;;;;;;21.69;61.03;101246.41;5132631;27;20174;-61
2021/07/12 04:01:39;;;;;;;15.50;9.93;;;;;;;21.72;61.33;101263.13;5126756;27;20191;-61
2021/07/12 04:04:05;;;;;;;15.67;9.50;;;;;;;21.76;61.15;101254.44;5096096;28;20194;-61
2021/07/12 04:06:30;;;;;;;16.03;9.83;;;;;;;21.81;61.10;101256.56;5112957;28;20216;-61
2021/07/12 04:08:57;;;;;;;17.43;9.83;;;;;;;21.85;60.74;101257.13;5110533;28;20651;-62
2021/07/12 04:11:29;;;;;;;12.60;9.63;;;;;;;21.92;60.60;101259.50;5093861;28;20182;-61
2021/07/12 04:13:55;;;;;;;14.57;9.40;;;;;;;21.97;60.59;101282.16;5111955;28;20219;-61
2021/07/12 04:16:21;;;;;;;11.57;9.67;;;;;;;21.97;60.61;101270.09;5112139;28;20197;-61
2021/07/12 04:18:46;;;;;;;14.47;10.00;;;;;;;22.09;60.51;101271.75;5112152;28;20193;-61
2021/07/12 04:21:13;;;;;;;12.10;9.27;;;;;;;22.06;60.28;101258.66;5124431;27;20774;-62
2021/07/12 04:23:39;;;;;;;5.50;5.00;;;;;;;23.41;71.39;101270.16;5099367;27;20261;-61
2021/07/12 04:26:05;;;;;;;8.33;6.03;;;;;;;25.18;62.03;101266.47;5098581;28;20209;-61
2021/07/12 04:28:30;;;;;;;15.60;7.63;;;;;;;25.40;55.34;101165.09;5083523;27;20216;-61
2021/07/12 04:30:56;;;;;;;10.63;7.37;;;;;;;26.76;52.39;101275.59;5111092;27;20716;-61
2021/07/12 04:33:21;;;;;;;14.70;7.70;;;;;;;26.87;50.42;101261.28;5107222;27;20190;-60
2021/07/12 04:35:47;;;;;;;15.30;7.30;;;;;;;26.78;50.67;101272.25;5113994;27;20214;-61
2021/07/12 04:38:12;;;;;;;13.93;7.57;;;;;;;26.85;50.46;101268.81;5075071;28;20234;-62
2021/07/12 04:40:38;;;;;;;11.57;7.17;;;;;;;27.27;49.75;101268.22;5094745;27;20205;-62
2021/07/12 04:43:03;;;;;;;11.33;7.80;;;;;;;27.55;49.11;101275.16;5110893;28;20575;-62
2021/07/12 04:45:29;;;;;;;13.97;8.50;;;;;;;27.18;48.74;101282.78;5110109;28;20601;-62
2021/07/12 04:47:54;;;;;;;14.97;8.67;;;;;;;26.79;49.51;101283.09;5111497;28;20180;-60
2021/07/12 04:50:20;;;;;;;18.27;11.20;;;;;;;26.51;50.19;101279.63;5110770;28;20238;-60
2021/07/12 04:52:45;;;;;;;17.13;9.27;;;;;;;26.45;50.62;101255.41;5116565;27;20234;-61
2021/07/12 04:55:11;;;;;;;12.33;8.30;;;;;;;27.01;50.43;101262.97;5130173;27;20570;-61
2021/07/12 04:57:37;;;;;;;19.03;8.90;;;;;;;26.53;51.25;101188.16;5132239;27;20299;-66
2021/07/12 05:00:05;;;;;;;13.70;9.50;;;;;;;26.82;50.61;101244.28;5131072;27;20181;-63
2021/07/12 05:02:31;;;;;;;15.30;9.50;;;;;;;27.14;51.27;101285.13;5131349;27;20571;-65
2021/07/12 05:04:56;;;;;;;13.00;9.13;;;;;;;26.69;50.78;101269.72;5093901;27;20205;-61
2021/07/12 05:07:22;;;;;;;13.73;8.87;;;;;;;26.34;53.97;101276.16;5120620;27;20193;-61
2021/07/12 05:09:47;;;;;;;15.73;9.07;;;;;;;26.96;51.88;101282.94;5082129;27;20278;-63
2021/07/12 05:12:14;;;;;;;13.13;9.20;;;;;;;27.54;50.45;101278.53;5075410;27;20565;-61
2021/07/12 05:14:42;;;;;;;12.07;9.13;;;;;;;27.60;49.51;101282.06;5084436;28;20197;-61
2021/07/12 05:17:11;;;;;;;13.03;8.83;;;;;;;27.38;49.15;101216.84;5094172;28;20293;-60
2021/07/12 05:19:37;;;;;;;14.53;9.10;;;;;;;28.11;48.22;101269.53;5106080;28;20262;-63
2021/07/12 05:22:03;;;;;;;16.70;9.07;;;;;;;27.69;47.82;101205.59;5095063;28;20659;-67
2021/07/12 05:24:29;;;;;;;12.53;8.20;;;;;;;28.28;47.43;101284.31;5077349;28;20320;-67
2021/07/12 05:26:54;;;;;;;12.87;8.10;;;;;;;28.14;47.36;101215.09;5097368;28;20213;-64
2021/07/12 05:29:20;;;;;;;10.87;7.93;;;;;;;28.77;46.84;101299.94;5091448;28;20656;-65
2021/07/12 05:31:46;;;;;;;10.23;7.97;;;;;;;28.71;46.70;101288.63;5095510;28;20660;-63
2021/07/12 05:34:12;;;;;;;11.33;7.87;;;;;;;28.91;45.97;101275.88;5085751;28;20208;-62
2021/07/12 05:36:38;;;;;;;11.77;7.13;;;;;;;28.88;45.96;101268.38;5083811;28;20195;-68
2021/07/12 05:39:04;;;;;;;13.93;7.67;;;;;;;28.85;46.32;101286.56;5070406;28;20297;-63
2021/07/12 05:41:30;;;;;;;15.43;7.60;;;;;;;29.01;45.95;101292.03;5076962;28;20198;-61
2021/07/12 05:43:55;;;;;;;14.00;7.47;;;;;;;29.15;45.71;101299.31;5088018;28;20641;-61
2021/07/12 05:46:21;;;;;;;11.77;7.30;;;;;;;29.13;45.18;101276.25;5089676;28;20670;-61
2021/07/12 05:48:46;;;;;;;11.43;7.40;;;;;;;29.28;44.89;101305.03;5074000;28;20247;-61
2021/07/12 05:51:12;;;;;;;12.33;6.57;;;;;;;29.46;44.29;101306.28;5098441;28;20178;-61
2021/07/12 05:53:37;;;;;;;9.27;6.40;;;;;;;29.37;44.19;101298.16;5075988;28;20186;-63
2021/07/12 05:56:03;;;;;;;10.20;7.10;;;;;;;28.59;43.64;101167.50;5094850;28;20215;-65
2021/07/12 05:58:30;;;;;;;11.17;6.80;;;;;;;29.26;43.74;101309.75;5102019;28;20183;-62
2021/07/12 06:00:56;;;;;;;11.83;6.67;;;;;;;29.23;44.55;101303.06;5086599;28;20563;-64
2021/07/12 06:03:22;;;;;;;9.05;6.53;;;;;;;29.29;43.93;101312.31;5094029;28;20203;-64
2021/07/12 06:05:48;;;;;;;9.70;6.43;;;;;;;29.35;43.48;101304.41;5089986;28;20186;-63
2021/07/12 06:08:13;;;;;;;7.22;6.40;;;;;;;28.54;42.96;101216.84;5093168;28;20175;-62
2021/07/12 06:10:39;;;;;;;7.13;6.43;;;;;;;29.22;43.13;101310.09;5091410;28;20274;-63
2021/07/12 06:13:04;;;;;;;7.63;6.27;;;;;;;28.69;44.34;101248.47;5092554;28;20295;-62
2021/07/12 06:15:30;;;;;;;6.97;6.27;;;;;;;29.09;43.64;101287.25;5089753;28;20175;-63
2021/07/12 06:17:56;;;;;;;9.07;6.40;;;;;;;29.06;43.98;101319.72;5093282;28;20204;-62
2021/07/12 06:20:21;;;;;;;11.97;6.67;;;;;;;28.43;44.27;101330.28;5100100;28;20299;-64
2021/07/12 06:22:48;;;;;;;7.57;6.30;;;;;;;28.50;45.36;101321.88;5104627;28;20610;-65
2021/07/12 06:25:15;;;;;;;8.73;5.97;;;;;;;28.82;44.48;101321.91;5088739;28;20202;-64
2021/07/12 06:27:41;;;;;;;7.57;6.23;;;;;;;28.51;43.27;101246.41;5097947;28;20209;-64
2021/07/12 06:30:07;;;;;;;10.53;6.67;;;;;;;28.61;43.68;101316.00;5100287;28;20647;-66
2021/07/12 06:32:33;;;;;;;9.83;6.80;;;;;;;27.74;44.85;101304.41;5098865;28;20182;-65
2021/07/12 06:34:59;;;;;;;9.30;7.17;;;;;;;27.22;45.45;101240.59;5091425;28;20751;-65
2021/07/12 06:37:24;;;;;;;13.60;6.53;;;;;;;27.28;46.34;101207.91;5093972;28;20234;-65
2021/07/12 06:39:50;;;;;;;11.03;7.50;;;;;;;26.76;46.17;101193.16;5096573;28;20186;-66
2021/07/12 06:42:16;;;;;;;11.33;7.30;;;;;;;27.52;46.47;101298.97;5095182;28;20275;-62
2021/07/12 06:44:42;;;;;;;9.30;7.00;;;;;;;27.70;46.16;101303.19;5104485;28;20277;-65
2021/07/12 06:47:08;;;;;;;8.27;6.77;;;;;;;27.17;45.47;101247.84;5084752;28;20566;-62
2021/07/12 06:49:34;;;;;;;9.03;6.67;;;;;;;27.76;47.16;101304.66;5103637;28;20201;-63
2021/07/12 06:52:00;;;;;;;9.13;7.00;;;;;;;28.29;44.77;101317.22;5093335;28;20190;-63
2021/07/12 06:54:26;;;;;;;10.30;7.10;;;;;;;28.19;45.11;101294.03;5078197;28;20190;-64
2021/07/12 06:56:51;;;;;;;14.70;6.27;;;;;;;28.58;44.80;101304.91;5093508;28;20605;-66
2021/07/12 06:59:17;;;;;;;7.20;6.50;;;;;;;28.77;44.27;101297.84;5072505;28;20198;-63
2021/07/12 07:01:44;;;;;;;9.23;6.30;;;;;;;28.45;43.87;101251.44;5105782;28;20827;-64
2021/07/12 07:04:12;;;;;;;10.97;6.97;;;;;;;28.64;43.53;101266.44;5104120;28;20213;-63
2021/07/12 07:06:38;;;;;;;11.43;6.80;;;;;;;29.10;43.58;101305.13;5105365;28;20260;-61
2021/07/12 07:09:04;;;;;;;11.73;6.70;;;;;;;27.83;44.17;101160.88;5106700;28;20604;-63
2021/07/12 07:11:31;;;;;;;10.47;6.80;;;;;;;28.72;44.17;101306.50;5108995;28;20182;-64
2021/07/12 07:13:58;;;;;;;8.73;7.20;;;;;;;27.93;44.84;101262.53;5104875;28;20174;-64
2021/07/12 07:16:24;;;;;;;9.00;7.13;;;;;;;28.28;45.08;101293.66;5108373;28;20198;-64
2021/07/12 07:18:49;;;;;;;7.33;6.47;;;;;;;28.42;45.02;101297.38;5102807;28;20240;-64
2021/07/12 07:21:16;;;;;;;8.13;6.53;;;;;;;28.34;44.65;101250.81;5102866;28;20223;-63
2021/07/12 07:23:42;;;;;;;7.67;6.60;;;;;;;28.84;44.46;101305.78;5103592;28;20190;-64
2021/07/12 07:26:11;;;;;;;10.53;7.47;;;;;;;28.36;44.21;101248.19;5101601;27;20682;-64
2021/07/12 07:28:37;;;;;;;7.53;6.43;;;;;;;28.35;44.47;101229.56;5104395;28;20294;-64
2021/07/12 07:31:03;;;;;;;6.93;6.23;;;;;;;28.89;44.59;101310.63;5108823;28;20631;-63
2021/07/12 07:33:29;;;;;;;12.27;7.50;;;;;;;29.06;43.16;101318.94;5108732;28;20286;-64
2021/07/12 07:35:59;;;;;;;10.17;7.37;;;;;;;27.98;44.34;101201.06;5098804;28;20209;-63
2021/07/12 07:38:26;;;;;;;7.40;6.70;;;;;;;28.63;45.19;101301.19;5102752;28;20186;-60
2021/07/12 07:40:52;;;;;;;11.90;7.63;;;;;;;28.65;44.04;101227.28;5100448;28;20182;-60
2021/07/12 07:43:17;;;;;;;8.40;6.73;;;;;;;29.01;44.08;101279.88;5105085;28;20204;-62
2021/07/12 07:45:43;;;;;;;9.80;6.40;;;;;;;29.36;43.47;101310.88;5100603;28;20187;-62
2021/07/12 07:48:08;;;;;;;7.53;6.30;;;;;;;29.37;43.40;101293.22;5106157;28;20260;-63
2021/07/12 07:50:37;;;;;;;10.60;7.13;;;;;;;29.24;42.64;101273.22;5104596;28;20667;-63
2021/07/12 07:53:04;;;;;;;11.70;7.10;;;;;;;29.11;43.95;101296.00;5096406;27;20179;-62
2021/07/12 07:55:30;;;;;;;9.53;7.17;;;;;;;29.29;43.02;101298.03;5108234;28;20178;-62
2021/07/12 07:57:57;;;;;;;11.07;8.03;;;;;;;28.58;44.18;101273.53;5105257;28;20175;-62
2021/07/12 08:00:24;;;;;;;13.50;7.80;;;;;;;28.33;44.57;101281.41;5103151;28;20185;-63
2021/07/12 08:02:50;;;;;;;9.87;7.20;;;;;;;28.77;44.54;101282.84;5102475;28;20231;-63
2021/07/12 08:05:17;;;;;;;10.20;7.77;;;;;;;28.71;44.57;101282.16;5107063;28;20556;-63
2021/07/12 08:07:42;;;;;;;7.93;7.17;;;;;;;28.90;44.14;101271.44;5098018;28;20196;-62
2021/07/12 08:10:11;;;;;;;9.17;7.07;;;;;;;29.35;43.13;101284.44;5106745;28;20273;-63
2021/07/12 08:12:37;;;;;;;12.05;7.05;;;;;;;29.22;43.29;101284.41;5099368;28;20182;-63
2021/07/12 08:15:05;;;;;;;9.80;7.60;;;;;;;28.87;42.55;101215.50;5103957;28;20193;-63
2021/07/12 08:17:30;;;;;;;10.27;6.75;;;;;;;29.10;43.13;101248.81;5102155;28;20178;-65
2021/07/12 08:19:56;;;;;;;8.93;7.10;;;;;;;29.44;43.67;101280.38;5103334;28;20189;-65
2021/07/12 08:22:21;;;;;;;8.70;6.97;;;;;;;29.59;42.73;101254.91;5089973;28;20190;-62
2021/07/12 08:24:46;;;;;;;13.85;8.38;;;;;;;29.36;41.62;101220.28;5102576;28;20515;-61
2021/07/12 08:27:12;;;;;;;10.05;7.43;;;;;;;29.78;41.81;101289.84;5106063;27;20217;-62
2021/07/12 08:29:37;;;;;;;10.10;7.47;;;;;;;29.25;41.95;101209.09;5104301;27;20227;-64
2021/07/12 08:32:03;;;;;;;10.50;6.30;;;;;;;29.63;42.43;101233.25;5105191;28;20265;-63
2021/07/12 08:34:29;;;;;;;9.30;6.55;;;;;;;30.05;41.84;101289.25;5095975;28;20723;-66
2021/07/12 08:36:54;;;;;;;11.68;6.60;;;;;;;30.14;40.96;101265.22;5107493;28;20228;-64
2021/07/12 08:39:20;;;;;;;11.57;6.93;;;;;;;30.26;41.32;101289.34;5102268;28;20187;-63
2021/07/12 08:41:46;;;;;;;8.98;6.80;;;;;;;30.10;42.04;101276.94;5108400;27;20178;-65
2021/07/12 08:44:12;;;;;;;11.48;7.03;;;;;;;30.34;41.57;101287.34;5108040;28;20632;-66
2021/07/12 08:46:38;;;;;;;9.52;6.50;;;;;;;30.52;41.16;101283.56;5108143;28;20208;-65
2021/07/12 08:49:04;;;;;;;9.27;6.63;;;;;;;30.03;40.05;101211.09;5085309;28;20807;-65
2021/07/12 08:51:29;;;;;;;8.77;7.07;;;;;;;30.53;40.69;101290.81;5107696;27;20179;-60
2021/07/12 08:53:55;;;;;;;7.60;6.30;;;;;;;30.72;40.43;101286.47;5113380;27;20644;-61
2021/07/12 08:56:21;;;;;;;10.23;6.93;;;;;;;30.22;39.77;101194.56;5102995;28;20198;-60
2021/07/12 08:58:47;;;;;;;13.68;7.13;;;;;;;30.93;39.97;101277.88;5108018;28;20190;-61
2021/07/12 09:01:14;;;;;;;8.50;6.53;;;;;;;31.02;39.53;101277.41;5105384;28;20979;-61
2021/07/12 09:03:51;;;;;;;9.57;6.53;;;;;;;31.02;39.08;101268.81;5107974;27;20206;-61
2021/07/12 09:06:25;;;;;;;8.15;6.13;;;;;;;31.18;38.63;101279.81;5104768;28;20172;-60
2021/07/12 09:08:56;;;;;;;9.02;6.28;;;;;;;31.27;38.94;101284.31;5107064;28;20242;-60
2021/07/12 09:11:29;;;;;;;8.63;5.70;;;;;;;31.31;38.79;101274.03;5106747;28;20174;-63
2021/07/12 09:14:03;;;;;;;8.68;6.10;;;;;;;31.39;37.68;101256.91;5106842;28;20831;-63
2021/07/12 09:16:41;;;;;;;8.38;5.78;;;;;;;31.61;37.58;101270.59;5111858;27;20193;-63
2021/07/12 09:19:21;;;;;;;8.68;6.15;;;;;;;31.38;36.96;101272.56;5086693;28;20612;-61
2021/07/12 09:21:52;;;;;;;8.18;6.45;;;;;;;31.07;38.68;101267.91;5103737;28;20243;-62
2021/07/12 09:24:17;;;;;;;6.65;6.00;;;;;;;31.16;38.45;101275.97;5103621;28;20201;-62
2021/07/12 09:26:46;;;;;;;9.70;6.05;;;;;;;31.22;38.83;101265.94;5108249;28;20194;-63
2021/07/12 09:29:32;;;;;;;8.68;6.22;;;;;;;31.39;38.14;101274.09;5107987;27;20190;-61
2021/07/12 09:31:59;;;;;;;9.13;6.18;;;;;;;31.30;38.70;101261.03;5102840;28;20253;-65
2021/07/12 09:34:27;;;;;;;11.65;6.28;;;;;;;31.42;38.45;101261.50;5104817;28;20327;-65
2021/07/12 09:36:53;;;;;;;6.88;6.07;;;;;;;31.48;38.15;101260.00;5108407;27;20203;-65
2021/07/12 09:39:43;;;;;;;7.07;5.90;;;;;;;31.55;38.65;101255.66;5108101;27;20568;-63
2021/07/12 09:42:11;;;;;;;11.23;6.68;;;;;;;31.49;38.98;101257.91;5102734;28;20739;-67
2021/07/12 09:44:48;;;;;;;9.32;6.18;;;;;;;31.66;38.28;101258.19;5089213;28;20603;-64
2021/07/12 09:47:19;;;;;;;8.30;5.68;;;;;;;31.84;38.40;101255.06;5090052;28;20243;-62
2021/07/12 09:49:46;;;;;;;7.00;6.03;;;;;;;31.83;37.33;101255.66;5105316;28;20186;-62
2021/07/12 09:52:14;;;;;;;8.88;6.63;;;;;;;31.75;37.21;101255.63;5107474;28;20773;-65
2021/07/12 09:54:42;;;;;;;10.02;6.32;;;;;;;31.54;38.56;101248.41;5106608;28;20170;-64
2021/07/12 09:57:12;;;;;;;10.10;6.50;;;;;;;31.72;38.61;101253.06;5107448;28;20671;-60
2021/07/12 09:59:54;;;;;;;10.50;6.10;;;;;;;31.50;38.10;101191.47;5106742;28;20178;-66
2021/07/12 10:02:23;;;;;;;10.95;6.38;;;;;;;31.64;37.39;101180.66;5103227;28;20190;-64
2021/07/12 10:04:54;;;;;;;11.25;5.78;;;;;;;31.91;36.94;101208.50;5111394;28;20210;-66
2021/07/12 10:07:20;;;;;;;7.80;6.20;;;;;;;32.01;37.03;101189.44;5107374;28;20174;-72
2021/07/12 10:09:46;;;;;;;10.10;6.40;;;;;;;31.78;37.14;101150.56;5107452;28;20238;-65
2021/07/12 10:12:12;;;;;;;9.55;6.30;;;;;;;32.18;36.30;101163.06;5104598;28;20185;-67
2021/07/12 10:14:38;;;;;;;7.15;6.03;;;;;;;32.76;36.60;101249.06;5107280;28;20182;-65
2021/07/12 10:17:07;;;;;;;8.85;5.80;;;;;;;32.99;35.75;101244.13;5106013;28;20178;-65
2021/07/12 10:19:32;;;;;;;13.20;6.40;;;;;;;33.08;35.86;101229.97;5106793;28;20675;-64
2021/07/12 10:21:59;;;;;;;9.52;5.93;;;;;;;33.26;34.99;101240.28;5104605;28;20287;-66
2021/07/12 10:24:36;;;;;;;7.93;5.57;;;;;;;33.06;34.66;101192.44;5087438;28;20190;-65
2021/07/12 10:27:02;;;;;;;9.60;5.43;;;;;;;33.67;34.29;101234.06;5106483;28;20182;-65
2021/07/12 10:29:36;;;;;;;8.57;5.68;;;;;;;33.79;34.09;101235.19;5110283;28;20725;-66
2021/07/12 10:32:17;;;;;;;8.63;5.53;;;;;;;33.71;33.76;101230.81;5106003;28;20181;-62
2021/07/12 10:34:46;;;;;;;8.13;5.60;;;;;;;33.50;33.99;101216.69;5104056;28;20219;-64
2021/07/12 10:37:22;;;;;;;8.02;5.20;;;;;;;33.57;33.92;101236.03;5112428;28;20170;-63
2021/07/12 10:39:57;;;;;;;19.98;5.88;;;;;;;33.58;34.42;101216.69;5109634;28;20239;-62
2021/07/12 10:42:41;;;;;;;7.47;5.43;;;;;;;33.94;33.67;101208.50;5107164;28;20343;-63
2021/07/12 10:45:13;;;;;;;11.07;5.20;;;;;;;34.15;33.27;101214.72;5107609;28;20698;-63
2021/07/12 10:47:46;;;;;;;6.75;5.55;;;;;;;34.27;33.81;101210.03;5109966;28;20189;-64
2021/07/12 10:50:50;;;;;;;9.43;5.45;;;;;;;34.25;33.84;101209.88;5089517;28;20214;-65
2021/07/12 10:53:20;;;;;;;6.50;4.88;;;;;;;34.68;31.94;101207.31;5107762;27;20547;-65
2021/07/12 10:56:10;;;;;;;7.15;5.28;;;;;;;34.76;32.02;101204.34;5107048;28;20678;-62
2021/07/12 10:58:37;;;;;;;9.70;5.60;;;;;;;34.67;31.75;101194.25;5107917;28;20654;-64
2021/07/12 11:01:07;;;;;;;8.10;5.05;;;;;;;34.84;30.86;101193.56;5106995;28;20174;-66
2021/07/12 11:03:38;;;;;;;8.60;5.15;;;;;;;35.08;30.58;101198.53;5105763;28;20199;-64
2021/07/12 11:06:33;;;;;;;6.05;4.97;;;;;;;35.04;30.41;101189.53;5089638;28;20222;-62
2021/07/12 11:08:59;;;;;;;9.88;5.22;;;;;;;34.72;30.23;101114.75;5103207;28;20217;-63
2021/07/12 11:11:25;;;;;;;7.93;5.10;;;;;;;35.42;29.85;101184.91;5107343;28;20174;-65
2021/07/12 11:13:53;;;;;;;7.22;4.72;;;;;;;35.58;29.18;101179.75;5108376;27;20179;-66
2021/07/12 11:16:23;;;;;;;9.05;4.57;;;;;;;35.53;28.59;101177.91;5110870;27;20268;-64
2021/07/12 11:18:51;;;;;;;9.10;4.93;;;;;;;35.42;30.14;101178.41;5108644;28;20987;-64
2021/07/12 11:21:34;;;;;;;7.00;5.07;;;;;;;35.21;28.11;101172.28;5107993;27;20245;-64
2021/07/12 11:24:09;;;;;;;6.30;4.53;;;;;;;35.37;28.80;101179.44;5103951;28;20285;-65
2021/07/12 11:26:38;;;;;;;8.38;5.05;;;;;;;35.55;28.64;101170.19;5107194;28;20234;-66